»·PEaware :: N27JP KLAX-KSNA

N27JP :: KLAX-KSNA

FLIGHT INFORMATION

Flight Status: Arrived
Operator: Privately registered:
United States
More flights under this callsign
Pilot: Weston J. (31543)
Aircraft: CESSNA 172 SKYHAWK
(C172)
More flights by this aircraft type
Origin: KLAX Los Angeles Intl
United States
Destination: KSNA John Wayne-Orange Co
United States
More flights between these airports :: More routes between these airports
Route: SLI8 SLI
File this flight plan on PilotEdge
Remarks: I6 Practice
Altitude:
(Current/Filed)
4,000ft
Speed:
(Current/Filed)
110kts
Departed: 28-Dec-20 03:55 PM
Arrived: 28-Dec-20 04:34 PM
Distance/Time
Traveled:
31nm/0:39
Distance/Time
To Go:
Arrived

Flight Plot

Page will automatically refresh every two minutes.

Flight plan parsing failed; only flown route is shown


Map Options




Map Legend


Flown Route
Filed Route
Departure Airport
Arrival Airport
Navaid (VOR, NDB)
Fix

Horizontal Profiles

Position Reports

Time Latitude Longitude Heading Altitude Ground
Speed
28-Dec-20 15:30 33.933207 -118.397463 264 118ft 0kts
28-Dec-20 15:31 33.933207 -118.397463 264 118ft 0kts
28-Dec-20 15:32 33.933207 -118.397463 264 118ft 0kts
28-Dec-20 15:33 33.933207 -118.397463 264 118ft 0kts
28-Dec-20 15:34 33.933207 -118.397463 264 118ft 0kts
28-Dec-20 15:35 33.933207 -118.397463 264 118ft 0kts
28-Dec-20 15:36 33.933207 -118.397463 264 118ft 0kts
28-Dec-20 15:37 33.933207 -118.397463 264 118ft 0kts
28-Dec-20 15:38 33.933207 -118.397463 264 118ft 0kts
28-Dec-20 15:39 33.933207 -118.397463 264 118ft 0kts
28-Dec-20 15:40 33.933207 -118.397463 264 118ft 0kts
28-Dec-20 15:41 33.933207 -118.397463 264 118ft 0kts
28-Dec-20 15:42 33.933207 -118.397463 264 118ft 0kts
28-Dec-20 15:43 33.933207 -118.397463 264 118ft 0kts
28-Dec-20 15:44 33.933207 -118.397463 264 118ft 0kts
28-Dec-20 15:45 33.933206 -118.397474 264 118ft 0kts
28-Dec-20 15:46 33.933206 -118.397474 264 118ft 0kts
28-Dec-20 15:47 33.933215 -118.397742 286 118ft 5kts
28-Dec-20 15:48 33.934376 -118.399927 264 116ft 15kts
28-Dec-20 15:49 33.933766 -118.406068 263 125ft 21kts
28-Dec-20 15:50 33.932962 -118.413916 263 123ft 25kts
28-Dec-20 15:51 33.932727 -118.417817 299 120ft 0kts
28-Dec-20 15:52 33.932727 -118.417817 299 120ft 0kts
28-Dec-20 15:54 33.932977 -118.418167 322 122ft 7kts
28-Dec-20 15:55 33.934916 -118.405653 84 331ft 84kts
28-Dec-20 15:56 33.937605 -118.378136 80 1089ft 83kts
28-Dec-20 15:57 33.940659 -118.350648 80 1814ft 82kts
28-Dec-20 15:58 33.944193 -118.323449 80 2504ft 82kts
28-Dec-20 15:59 33.948417 -118.296500 80 3151ft 82kts
28-Dec-20 16:00 33.953633 -118.269311 80 3749ft 84kts
28-Dec-20 16:01 33.939929 -118.251748 159 4057ft 88kts
28-Dec-20 16:02 33.915453 -118.242573 160 3978ft 91kts
28-Dec-20 16:03 33.892770 -118.233583 160 3994ft 85kts
28-Dec-20 16:04 33.870469 -118.223983 160 3994ft 88kts
28-Dec-20 16:05 33.845047 -118.212248 160 4029ft 102kts
28-Dec-20 16:06 33.825026 -118.188787 113 4033ft 115kts
28-Dec-20 16:07 33.814245 -118.152172 113 4043ft 118kts
28-Dec-20 16:08 33.804453 -118.119846 111 4038ft 121kts
28-Dec-20 16:08 33.795896 -118.091900 110 4015ft 123kts
28-Dec-20 16:09 33.785606 -118.058897 109 4009ft 122kts
28-Dec-20 16:11 33.801647 -118.012189 61 4016ft 123kts
28-Dec-20 16:12 33.814083 -117.982813 62 4023ft 125kts
28-Dec-20 16:12 33.827847 -117.949883 63 4026ft 126kts
28-Dec-20 16:14 33.848883 -117.899158 63 4034ft 128kts
28-Dec-20 16:14 33.862231 -117.866836 63 4038ft 129kts
28-Dec-20 16:16 33.881174 -117.820834 64 4042ft 131kts
28-Dec-20 16:16 33.894799 -117.787728 64 4046ft 131kts
28-Dec-20 16:17 33.910899 -117.748470 63 4047ft 129kts
28-Dec-20 16:18 33.926327 -117.710936 60 4047ft 128kts
28-Dec-20 16:19 33.955033 -117.686249 25 4041ft 125kts
28-Dec-20 16:20 33.977406 -117.693400 254 4042ft 100kts
28-Dec-20 16:22 33.942989 -117.694739 193 3604ft 121kts
28-Dec-20 16:22 33.920422 -117.710335 212 3545ft 106kts
28-Dec-20 16:23 33.894832 -117.728059 209 3464ft 108kts
28-Dec-20 16:24 33.868439 -117.745329 208 3413ft 106kts
28-Dec-20 16:25 33.842298 -117.762163 206 3335ft 110kts
28-Dec-20 16:26 33.816422 -117.778894 207 3041ft 107kts
28-Dec-20 16:27 33.789532 -117.796204 206 2492ft 108kts
28-Dec-20 16:28 33.765483 -117.811688 205 1924ft 90kts
28-Dec-20 16:29 33.742900 -117.825920 203 1458ft 99kts
28-Dec-20 16:30 33.718970 -117.841586 204 959ft 88kts
28-Dec-20 16:31 33.701114 -117.852774 201 534ft 69kts
28-Dec-20 16:32 33.685833 -117.862356 203 216ft 61kts
28-Dec-20 16:33 33.675933 -117.869741 287 60ft 15kts
28-Dec-20 16:34 33.676155 -117.870998 206 60ft 5kts
28-Dec-20 16:35 33.676137 -117.871008 204 60ft 0kts
28-Dec-20 16:36 33.676137 -117.871008 204 60ft 0kts
28-Dec-20 16:37 33.676137 -117.871008 204 60ft 0kts
28-Dec-20 16:38 33.676137 -117.871008 204 60ft 0kts

Navigation Log

Ident Type
Flight plan parsing failed, navigation log unavailable